createdAt,value
2023-02-21T00:01:45.529Z,101832.84
2023-02-21T00:04:36.890Z,101837.28
2023-02-21T00:07:28.148Z,101831.94
2023-02-21T00:10:19.305Z,101842.53
2023-02-21T00:13:10.470Z,101832.88
2023-02-21T00:16:01.776Z,101839.00
2023-02-21T00:18:57.595Z,101843.34
2023-02-21T00:21:49.627Z,101838.03
2023-02-21T00:24:40.915Z,101845.19
2023-02-21T00:27:32.488Z,101831.09
2023-02-21T00:30:25.925Z,101840.75
2023-02-21T00:33:17.231Z,101843.34
2023-02-21T00:36:08.629Z,101841.63
2023-02-21T00:39:00.029Z,101839.00
2023-02-21T00:41:51.423Z,101839.81
2023-02-21T00:44:42.970Z,101836.34
2023-02-21T00:47:34.444Z,101828.41
2023-02-21T00:50:26.258Z,101838.13
2023-02-21T00:53:17.709Z,101833.63
2023-02-21T00:56:09.189Z,101829.19
2023-02-21T00:59:00.741Z,101829.16
2023-02-21T01:01:52.088Z,101822.22
2023-02-21T01:04:43.048Z,101825.69
2023-02-21T01:07:34.339Z,101821.34
2023-02-21T01:10:25.746Z,101812.56
2023-02-21T01:13:17.116Z,101816.97
2023-02-21T01:16:08.865Z,101808.03
2023-02-21T01:19:00.102Z,101808.97
2023-02-21T01:21:51.697Z,101809.88
2023-02-21T01:24:43.214Z,101808.09
2023-02-21T01:27:34.329Z,101806.31
2023-02-21T01:30:26.244Z,101809.91
2023-02-21T01:33:17.605Z,101808.09
2023-02-21T01:36:08.797Z,101801.09
2023-02-21T01:39:00.123Z,101801.06
2023-02-21T01:41:51.443Z,101808.09
2023-02-21T01:45:00.850Z,101801.06
2023-02-21T01:47:52.877Z,101796.59
2023-02-21T01:50:50.068Z,101803.72
2023-02-21T01:53:44.979Z,101799.28
2023-02-21T01:56:36.507Z,101805.47
2023-02-21T01:59:29.036Z,101801.13
2023-02-21T02:03:02.080Z,101805.47
2023-02-21T02:05:56.037Z,101798.44
2023-02-21T02:08:51.928Z,101793.16
2023-02-21T02:12:20.744Z,101795.75
2023-02-21T02:15:24.874Z,101785.19
2023-02-21T02:18:20.483Z,101784.31
2023-02-21T02:21:14.856Z,101782.59
2023-02-21T02:24:17.867Z,101777.31
2023-02-21T02:27:18.963Z,101773.69
2023-02-21T02:30:44.855Z,101781.66
2023-02-21T02:33:41.047Z,101775.47
2023-02-21T02:36:27.455Z,101774.66
2023-02-21T02:39:19.475Z,101765.84
2023-02-21T02:41:54.811Z,101762.19
2023-02-21T02:44:39.258Z,101758.75
2023-02-21T02:47:24.703Z,101757.03
2023-02-21T02:50:00.822Z,101755.28
2023-02-21T02:52:34.939Z,101748.22
2023-02-21T02:55:34.497Z,101758.78
2023-02-21T02:58:11.649Z,101742.94
2023-02-21T03:00:58.364Z,101744.72
2023-02-21T03:03:47.646Z,101744.66
2023-02-21T03:07:00.232Z,101747.38
2023-02-21T03:10:19.827Z,101744.75
2023-02-21T03:13:46.215Z,101751.75
2023-02-21T03:16:57.180Z,101740.31
2023-02-21T03:19:39.911Z,101744.66
2023-02-21T03:22:19.099Z,101749.13
2023-02-21T03:24:55.225Z,101747.41
2023-02-21T03:27:29.720Z,101750.91
2023-02-21T03:30:08.166Z,101750.00
2023-02-21T03:32:49.425Z,101749.97
2023-02-21T03:35:22.731Z,101735.91
2023-02-21T03:37:55.793Z,101742.03
2023-02-21T03:40:32.021Z,101740.25
2023-02-21T03:43:09.126Z,101739.47
2023-02-21T03:45:41.676Z,101745.59
2023-02-21T03:48:20.264Z,101741.19
2023-02-21T03:50:56.106Z,101742.06
2023-02-21T03:53:28.681Z,101740.31
2023-02-21T03:56:01.325Z,101742.88
2023-02-21T03:58:33.981Z,101744.69
2023-02-21T04:01:06.975Z,101747.31
2023-02-21T04:03:39.614Z,101752.59
2023-02-21T04:06:12.452Z,101746.47
2023-02-21T04:08:44.954Z,101748.16
2023-02-21T04:11:22.275Z,101749.03
2023-02-21T04:13:54.843Z,101740.22
2023-02-21T04:16:27.736Z,101738.41
2023-02-21T04:19:00.562Z,101742.84
2023-02-21T04:21:33.621Z,101735.78
2023-02-21T04:24:06.880Z,101733.22
2023-02-21T04:26:39.474Z,101742.00
2023-02-21T04:29:12.415Z,101732.38
2023-02-21T04:31:45.056Z,101726.16
2023-02-21T04:34:17.803Z,101723.56
2023-02-21T04:36:50.601Z,101720.94
2023-02-21T04:39:23.344Z,101724.41
2023-02-21T04:41:55.963Z,101728.75
2023-02-21T04:44:29.094Z,101723.50
2023-02-21T04:47:02.056Z,101725.25
2023-02-21T04:49:34.725Z,101727.91
2023-02-21T04:52:07.437Z,101719.19
2023-02-21T04:54:40.335Z,101720.88
2023-02-21T04:57:13.429Z,101717.38
2023-02-21T04:59:48.324Z,101712.97
2023-02-21T05:02:20.972Z,101713.88
2023-02-21T05:04:54.075Z,101710.38
2023-02-21T05:07:26.753Z,101713.81
2023-02-21T05:10:01.383Z,101724.47
2023-02-21T05:12:34.497Z,101718.28
2023-02-21T05:15:08.987Z,101714.75
2023-02-21T05:17:41.716Z,101717.34
2023-02-21T05:20:14.447Z,101721.78
2023-02-21T05:22:49.201Z,101714.75
2023-02-21T05:25:24.313Z,101722.66
2023-02-21T05:27:56.860Z,101720.88
2023-02-21T05:30:29.561Z,101724.44
2023-02-21T05:33:02.168Z,101719.13
2023-02-21T05:35:34.837Z,101725.34
2023-02-21T05:38:07.510Z,101727.13
2023-02-21T05:40:40.137Z,101719.19
2023-02-21T05:43:12.983Z,101729.75
2023-02-21T05:45:45.870Z,101724.50
2023-02-21T05:48:18.378Z,101742.13
2023-02-21T05:50:50.935Z,101732.38
2023-02-21T05:53:23.432Z,101725.31
2023-02-21T05:55:55.985Z,101728.84
2023-02-21T05:58:28.552Z,101727.09
2023-02-21T06:01:01.195Z,101728.78
2023-02-21T06:03:34.589Z,101733.19
2023-02-21T06:06:07.267Z,101728.00
2023-02-21T06:08:44.891Z,101732.38
2023-02-21T06:11:28.446Z,101735.00
2023-02-21T06:14:04.702Z,101735.88
2023-02-21T06:16:38.893Z,101734.88
2023-02-21T06:19:13.536Z,101742.84
2023-02-21T06:21:46.748Z,101733.22
2023-02-21T06:24:19.473Z,101734.03
2023-02-21T06:26:52.058Z,101734.97
2023-02-21T06:29:24.585Z,101738.44
2023-02-21T06:32:01.308Z,101730.44
2023-02-21T06:34:35.002Z,101740.19
2023-02-21T06:37:07.767Z,101734.06
2023-02-21T06:39:40.599Z,101739.31
2023-02-21T06:42:18.195Z,101741.09
2023-02-21T06:44:50.940Z,101741.09
2023-02-21T06:47:23.664Z,101740.97
2023-02-21T06:49:56.333Z,101735.78
2023-02-21T06:52:33.977Z,101742.88
2023-02-21T06:55:08.059Z,101738.44
2023-02-21T06:57:41.183Z,101739.34
2023-02-21T07:00:15.037Z,101743.72
2023-02-21T07:02:47.851Z,101738.41
2023-02-21T07:05:20.631Z,101740.97
2023-02-21T07:07:53.198Z,101729.59
2023-02-21T07:10:25.816Z,101738.41
2023-02-21T07:12:58.574Z,101741.03
2023-02-21T07:15:31.308Z,101741.03
2023-02-21T07:18:04.160Z,101741.88
2023-02-21T07:23:09.767Z,101745.38
2023-02-21T07:25:42.370Z,101732.22
2023-02-21T07:28:15.047Z,101743.69
2023-02-21T07:30:48.154Z,101741.97
2023-02-21T07:33:21.002Z,101739.25
2023-02-21T07:35:53.756Z,101737.53
2023-02-21T07:38:29.638Z,101741.88
2023-02-21T07:41:04.118Z,101750.66
2023-02-21T07:43:36.855Z,101755.97
2023-02-21T07:46:16.269Z,101745.50
2023-02-21T07:48:48.804Z,101750.78
2023-02-21T07:51:24.515Z,101741.97
2023-02-21T07:53:57.784Z,101749.94
2023-02-21T07:56:30.959Z,101752.50
2023-02-21T07:59:03.823Z,101742.88
2023-02-21T08:01:36.692Z,101749.06
2023-02-21T08:04:09.286Z,101751.53
2023-02-21T08:06:41.935Z,101737.53
2023-02-21T08:09:14.480Z,101733.13
2023-02-21T08:11:47.110Z,101741.91
2023-02-21T08:14:19.997Z,101758.59
2023-02-21T08:16:52.678Z,101752.44
2023-02-21T08:19:25.204Z,101745.47
2023-02-21T08:21:57.992Z,101733.19
2023-02-21T08:24:30.528Z,101743.78
2023-02-21T08:27:03.150Z,101756.94
2023-02-21T08:29:35.823Z,101749.03
2023-02-21T08:32:09.270Z,101753.44
2023-02-21T08:34:46.429Z,101742.91
2023-02-21T08:37:20.263Z,101739.34
2023-02-21T08:39:53.592Z,101735.00
2023-02-21T08:42:26.617Z,101739.34
2023-02-21T08:44:59.167Z,101738.47
2023-02-21T08:47:36.502Z,101746.50
2023-02-21T08:50:09.605Z,101744.72
2023-02-21T08:52:42.291Z,101740.34
2023-02-21T08:55:15.380Z,101739.41
2023-02-21T08:57:50.039Z,101737.72
2023-02-21T09:00:28.444Z,101739.47
2023-02-21T09:03:01.226Z,101731.56
2023-02-21T09:05:33.964Z,101735.09
2023-02-21T09:08:10.424Z,101735.97
2023-02-21T09:10:47.969Z,101726.31
2023-02-21T09:13:20.644Z,101736.84
2023-02-21T09:15:53.234Z,101725.44
2023-02-21T09:18:27.585Z,101727.19
2023-02-21T09:21:00.950Z,101723.66
2023-02-21T09:23:33.876Z,101725.47
2023-02-21T09:26:06.524Z,101725.47
2023-02-21T09:28:43.703Z,101719.28
2023-02-21T09:31:16.747Z,101726.34
2023-02-21T09:33:50.262Z,101722.81
2023-02-21T09:36:24.111Z,101709.59
2023-02-21T09:38:58.998Z,101713.16
2023-02-21T09:41:32.901Z,101719.28
2023-02-21T09:44:09.147Z,101716.66
2023-02-21T09:46:47.622Z,101714.06
2023-02-21T09:49:30.026Z,101705.19
2023-02-21T09:52:03.072Z,101710.50
2023-02-21T09:54:43.413Z,101715.78
2023-02-21T09:57:18.449Z,101716.66
2023-02-21T09:59:51.241Z,101715.78
2023-02-21T10:02:59.246Z,101720.19
2023-02-21T10:05:45.868Z,101714.91
2023-02-21T10:08:47.235Z,101724.59
2023-02-21T10:11:41.480Z,101719.28
2023-02-21T10:14:55.777Z,101719.28
2023-02-21T10:18:04.615Z,101722.81
2023-02-21T10:20:51.743Z,101729.91
2023-02-21T10:23:48.288Z,101724.59
2023-02-21T10:26:29.023Z,101722.81
2023-02-21T10:29:06.210Z,101721.09
2023-02-21T10:31:43.531Z,101721.97
2023-02-21T10:34:28.504Z,101724.63
2023-02-21T10:37:26.566Z,101723.75
2023-02-21T10:40:16.241Z,101731.63
2023-02-21T10:43:32.610Z,101726.34
2023-02-21T10:46:28.497Z,101726.34
2023-02-21T10:50:01.542Z,101722.84
2023-02-21T10:52:48.092Z,101732.53
2023-02-21T10:55:32.845Z,101732.53
2023-02-21T10:58:23.583Z,101730.81
2023-02-21T11:00:56.416Z,101719.31
2023-02-21T11:03:31.446Z,101720.19
2023-02-21T11:06:04.362Z,101726.38
2023-02-21T11:08:44.395Z,101718.44
2023-02-21T11:11:30.919Z,101707.88
2023-02-21T11:14:21.593Z,101695.53
2023-02-21T11:17:21.946Z,101702.50
2023-02-21T11:19:58.739Z,101699.03
2023-02-21T11:22:34.823Z,101696.41
2023-02-21T11:25:28.907Z,101696.38
2023-02-21T11:28:14.923Z,101692.88
2023-02-21T11:31:06.964Z,101694.66
2023-02-21T11:33:48.802Z,101686.56
2023-02-21T11:36:40.027Z,101687.56
2023-02-21T11:39:23.504Z,101682.22
2023-02-21T11:42:00.210Z,101670.78
2023-02-21T11:44:39.602Z,101672.53
2023-02-21T11:47:21.761Z,101676.06
2023-02-21T11:50:26.305Z,101663.75
2023-02-21T11:53:22.515Z,101666.38
2023-02-21T11:56:25.994Z,101667.22
2023-02-21T11:59:28.508Z,101662.03
2023-02-21T12:03:27.259Z,101655.00
2023-02-21T12:06:36.114Z,101654.97
2023-02-21T12:09:26.832Z,101652.28
2023-02-21T12:12:29.047Z,101649.59
2023-02-21T12:15:23.043Z,101640.78
2023-02-21T12:18:28.230Z,101639.84
2023-02-21T12:21:06.387Z,101648.63
2023-02-21T12:24:16.274Z,101651.09
2023-02-21T12:26:58.452Z,101644.13
2023-02-21T12:29:46.696Z,101635.31
2023-02-21T12:32:55.620Z,101633.66
2023-02-21T12:35:49.205Z,101637.03
2023-02-21T12:39:00.598Z,101637.03
2023-02-21T12:42:12.649Z,101623.88
2023-02-21T12:45:37.263Z,101619.25
2023-02-21T12:48:25.750Z,101617.47
2023-02-21T12:51:09.798Z,101628.03
2023-02-21T12:54:03.281Z,101618.47
2023-02-21T12:57:02.584Z,101618.34
2023-02-21T13:00:17.472Z,101616.56
2023-02-21T13:03:05.662Z,101616.56
2023-02-21T13:05:52.336Z,101616.59
2023-02-21T13:08:32.760Z,101603.28
2023-02-21T13:11:26.895Z,101615.72
2023-02-21T13:14:01.738Z,101610.53
2023-02-21T13:16:34.909Z,101610.72
2023-02-21T13:19:12.938Z,101607.97
2023-02-21T13:22:29.184Z,101606.13
2023-02-21T13:25:25.781Z,101606.22
2023-02-21T13:28:06.822Z,101594.84
2023-02-21T13:30:46.976Z,101593.84
2023-02-21T13:33:45.842Z,101594.03
2023-02-21T13:36:33.720Z,101588.78
2023-02-21T13:39:09.215Z,101587.13
2023-02-21T13:41:52.051Z,101586.16
2023-02-21T13:44:42.076Z,101583.41
2023-02-21T13:47:21.952Z,101583.50
2023-02-21T13:49:57.603Z,101572.09
2023-02-21T13:52:33.075Z,101583.34
2023-02-21T13:55:12.630Z,101581.59
2023-02-21T13:58:18.616Z,101575.59
2023-02-21T14:00:53.982Z,101585.31
2023-02-21T14:03:28.493Z,101582.75
2023-02-21T14:06:00.939Z,101581.94
2023-02-21T14:08:50.453Z,101574.78
2023-02-21T14:11:34.431Z,101571.34
2023-02-21T14:14:24.893Z,101586.28
2023-02-21T14:17:08.579Z,101583.69
2023-02-21T14:19:41.049Z,101576.56
2023-02-21T14:22:20.963Z,101566.91
2023-02-21T14:25:25.735Z,101574.88
2023-02-21T14:27:58.244Z,101571.34
2023-02-21T14:30:34.394Z,101567.00
2023-02-21T14:33:25.217Z,101558.13
2023-02-21T14:36:06.828Z,101553.69
2023-02-21T14:38:43.150Z,101554.44
2023-02-21T14:41:18.741Z,101558.81
2023-02-21T14:44:20.728Z,101549.19
2023-02-21T14:47:13.400Z,101547.56
2023-02-21T14:50:03.776Z,101542.97
2023-02-21T14:53:13.416Z,101550.03
2023-02-21T14:56:23.993Z,101529.81
2023-02-21T14:59:07.385Z,101538.59
2023-02-21T15:02:16.670Z,101536.06
2023-02-21T15:05:20.070Z,101540.50
2023-02-21T15:08:17.284Z,101537.88
2023-02-21T15:10:56.096Z,101532.56
2023-02-21T15:13:33.552Z,101531.59
2023-02-21T15:16:11.906Z,101535.19
2023-02-21T15:19:01.778Z,101537.03
2023-02-21T15:21:34.272Z,101534.34
2023-02-21T15:24:16.481Z,101543.16
2023-02-21T15:26:48.998Z,101536.97
2023-02-21T15:29:21.557Z,101529.88
2023-02-21T15:31:57.223Z,101530.00
2023-02-21T15:34:50.326Z,101526.41
2023-02-21T15:37:31.406Z,101535.25
2023-02-21T15:40:15.216Z,101526.47
2023-02-21T15:42:51.130Z,101534.41
2023-02-21T15:45:50.933Z,101530.00
2023-02-21T15:48:24.288Z,101530.00
2023-02-21T15:51:06.293Z,101533.56
2023-02-21T15:53:38.953Z,101521.22
2023-02-21T15:56:22.724Z,101523.03
2023-02-21T15:59:19.024Z,101519.47
2023-02-21T16:02:09.710Z,101522.09
2023-02-21T16:04:46.695Z,101509.75
2023-02-21T16:07:35.437Z,101519.44
2023-02-21T16:10:14.306Z,101509.75
2023-02-21T16:12:49.216Z,101516.00
2023-02-21T16:15:29.159Z,101521.22
2023-02-21T16:18:08.028Z,101521.22
2023-02-21T16:20:43.264Z,101518.66
2023-02-21T16:23:42.687Z,101514.25
2023-02-21T16:26:18.211Z,101521.31
2023-02-21T16:28:50.688Z,101515.16
2023-02-21T16:31:32.311Z,101518.66
2023-02-21T16:34:05.084Z,101518.69
2023-02-21T16:36:40.781Z,101517.75
2023-02-21T16:39:13.329Z,101517.75
2023-02-21T16:41:45.910Z,101516.91
2023-02-21T16:44:18.460Z,101510.72
2023-02-21T16:46:52.182Z,101508.09
2023-02-21T16:49:25.007Z,101505.41
2023-02-21T16:51:57.568Z,101511.63
2023-02-21T16:54:30.055Z,101507.22
2023-02-21T16:57:02.646Z,101508.09
2023-02-21T16:59:36.116Z,101501.06
2023-02-21T17:02:15.098Z,101509.88
2023-02-21T17:04:47.593Z,101499.31
2023-02-21T17:07:24.239Z,101506.34
2023-02-21T17:09:56.744Z,101501.97
2023-02-21T17:12:29.333Z,101504.63
2023-02-21T17:15:02.314Z,101506.38
2023-02-21T17:17:34.944Z,101506.34
2023-02-21T17:20:14.381Z,101511.63
2023-02-21T17:22:48.291Z,101513.41
2023-02-21T17:25:22.896Z,101504.59
2023-02-21T17:27:55.437Z,101507.25
2023-02-21T17:30:28.142Z,101515.16
2023-02-21T17:33:00.839Z,101511.63
2023-02-21T17:35:33.675Z,101517.78
2023-02-21T17:38:07.028Z,101517.78
2023-02-21T17:40:40.406Z,101514.25
2023-02-21T17:43:16.183Z,101511.63
2023-02-21T17:45:48.791Z,101515.16
2023-02-21T17:48:21.306Z,101515.16
2023-02-21T17:50:53.852Z,101514.25
2023-02-21T17:53:28.178Z,101501.09
2023-02-21T17:56:01.171Z,101513.38
2023-02-21T17:58:33.722Z,101509.00
2023-02-21T18:01:07.572Z,101509.00
2023-02-21T18:03:41.194Z,101514.28
2023-02-21T18:06:15.867Z,101514.28
2023-02-21T18:08:48.519Z,101515.13
2023-02-21T18:11:23.932Z,101507.25
2023-02-21T18:13:57.548Z,101513.38
2023-02-21T18:16:30.607Z,101515.16
2023-02-21T18:19:03.394Z,101515.16
2023-02-21T18:21:40.990Z,101508.13
2023-02-21T18:24:15.304Z,101501.94
2023-02-21T18:26:48.002Z,101501.94
2023-02-21T18:29:20.589Z,101501.97
2023-02-21T18:31:54.606Z,101498.47
2023-02-21T18:34:27.281Z,101494.91
2023-02-21T18:36:59.833Z,101485.25
2023-02-21T18:39:33.362Z,101490.47
2023-02-21T18:42:06.442Z,101489.63
2023-02-21T18:44:38.974Z,101487.00
2023-02-21T18:47:12.918Z,101492.25
2023-02-21T18:49:47.750Z,101498.44
2023-02-21T18:52:20.353Z,101492.28
2023-02-21T18:54:53.221Z,101491.41
2023-02-21T18:57:25.764Z,101479.97
2023-02-21T18:59:58.535Z,101485.25
2023-02-21T19:02:31.377Z,101481.75
2023-02-21T19:05:04.171Z,101485.25
2023-02-21T19:07:36.771Z,101463.25
2023-02-21T19:10:12.308Z,101466.78
2023-02-21T19:12:44.994Z,101463.28
2023-02-21T19:15:19.279Z,101467.66
2023-02-21T19:17:51.821Z,101458.88
2023-02-21T19:20:24.455Z,101456.25
2023-02-21T19:22:56.986Z,101459.78
2023-02-21T19:25:30.959Z,101468.56
2023-02-21T19:28:06.771Z,101458.00
2023-02-21T19:30:39.283Z,101452.75
2023-02-21T19:33:12.153Z,101456.25
2023-02-21T19:35:45.800Z,101446.59
2023-02-21T19:38:18.468Z,101440.44
2023-02-21T19:40:51.029Z,101448.34
2023-02-21T19:43:23.756Z,101443.06
2023-02-21T19:45:56.537Z,101441.31
2023-02-21T19:48:29.342Z,101439.56
2023-02-21T19:51:01.925Z,101435.16
2023-02-21T19:53:34.433Z,101434.28
2023-02-21T19:56:07.199Z,101429.00
2023-02-21T19:58:39.959Z,101432.50
2023-02-21T20:01:14.068Z,101430.75
2023-02-21T20:03:49.062Z,101423.72
2023-02-21T20:06:24.738Z,101419.31
2023-02-21T20:08:57.411Z,101431.59
2023-02-21T20:11:30.171Z,101438.66
2023-02-21T20:14:02.829Z,101429.88
2023-02-21T20:16:43.888Z,101432.53
2023-02-21T20:19:16.672Z,101441.28
2023-02-21T20:21:51.765Z,101436.91
2023-02-21T20:24:24.401Z,101436.03
2023-02-21T20:26:57.012Z,101436.91
2023-02-21T20:29:29.813Z,101435.16
2023-02-21T20:32:03.882Z,101436.03
2023-02-21T20:34:39.851Z,101437.78
2023-02-21T20:37:14.408Z,101435.16
2023-02-21T20:39:49.915Z,101431.63
2023-02-21T20:42:24.798Z,101429.88
2023-02-21T20:44:57.387Z,101424.56
2023-02-21T20:47:30.959Z,101415.81
2023-02-21T20:50:07.318Z,101414.94
2023-02-21T20:52:41.249Z,101419.34
2023-02-21T20:55:22.384Z,101411.41
2023-02-21T20:57:55.286Z,101420.19
2023-02-21T21:00:30.227Z,101414.06
2023-02-21T21:03:06.481Z,101416.69
2023-02-21T21:05:39.137Z,101405.25
2023-02-21T21:08:12.142Z,101409.66
2023-02-21T21:10:48.557Z,101402.63
2023-02-21T21:13:21.259Z,101402.63
2023-02-21T21:15:53.893Z,101405.28
2023-02-21T21:18:27.082Z,101403.50
2023-02-21T21:20:59.752Z,101402.63
2023-02-21T21:23:32.278Z,101401.72
2023-02-21T21:26:09.482Z,101395.59
2023-02-21T21:28:42.055Z,101395.59
2023-02-21T21:31:15.105Z,101394.72
2023-02-21T21:33:47.953Z,101395.59
2023-02-21T21:36:20.531Z,101392.97
2023-02-21T21:38:53.079Z,101384.16
2023-02-21T21:41:25.628Z,101382.41
2023-02-21T21:43:58.593Z,101374.50
2023-02-21T21:46:32.735Z,101381.50
2023-02-21T21:49:06.351Z,101372.72
2023-02-21T21:51:38.912Z,101378.84
2023-02-21T21:54:13.537Z,101365.69
2023-02-21T21:56:47.845Z,101362.19
2023-02-21T21:59:24.227Z,101358.69
2023-02-21T22:01:57.786Z,101349.00
2023-02-21T22:04:30.483Z,101345.47
2023-02-21T22:07:04.519Z,101342.88
2023-02-21T22:09:37.768Z,101342.00
2023-02-21T22:12:18.192Z,101339.34
2023-02-21T22:14:50.769Z,101335.84
2023-02-21T22:17:23.451Z,101331.44
2023-02-21T22:19:56.012Z,101324.41
2023-02-21T22:22:28.496Z,101327.03
2023-02-21T22:25:00.969Z,101320.94
2023-02-21T22:27:33.478Z,101322.66
2023-02-21T22:30:06.387Z,101324.44
2023-02-21T22:32:41.715Z,101319.16
2023-02-21T22:35:19.423Z,101319.16
2023-02-21T22:38:04.828Z,101316.53
2023-02-21T22:40:37.363Z,101311.25
2023-02-21T22:43:10.673Z,101311.28
2023-02-21T22:45:49.993Z,101306.84
2023-02-21T22:48:22.776Z,101306.84
2023-02-21T22:50:55.366Z,101299.84
2023-02-21T22:53:27.964Z,101300.72
2023-02-21T22:56:02.676Z,101292.84
2023-02-21T22:58:36.663Z,101287.53
2023-02-21T23:01:09.157Z,101286.66
2023-02-21T23:03:42.453Z,101285.81
2023-02-21T23:06:15.385Z,101273.50
2023-02-21T23:08:50.484Z,101280.50
2023-02-21T23:11:26.131Z,101274.34
2023-02-21T23:13:58.692Z,101265.63
2023-02-21T23:16:31.369Z,101262.97
2023-02-21T23:19:04.068Z,101261.19
2023-02-21T23:21:49.179Z,101266.47
2023-02-21T23:24:22.539Z,101261.19
2023-02-21T23:26:55.323Z,101257.66
2023-02-21T23:29:28.039Z,101254.19
2023-02-21T23:32:09.783Z,101255.94
2023-02-21T23:34:42.573Z,101257.69
2023-02-21T23:37:15.284Z,101257.69
2023-02-21T23:39:47.783Z,101255.94
2023-02-21T23:42:20.263Z,101262.06
2023-02-21T23:44:52.769Z,101262.94
2023-02-21T23:47:25.263Z,101262.03
2023-02-21T23:49:59.305Z,101265.56
2023-02-21T23:52:31.837Z,101262.06
2023-02-21T23:55:04.763Z,101261.19
2023-02-21T23:57:37.344Z,101262.94
